ADDS METAR Data INFO
IDs: Format: Raw Decoded Include TAF

Data at: 2111 UTC 19 Jul 2018

KJSL 192100Z AUTO 00000KT 10SM CLR 32/23 A2999 RMK A01
KJSL 192040Z AUTO 00000G10KT 10SM CLR 32/23 A2998 RMK A01
KJSL 192020Z AUTO VRB04G11KT 10SM CLR 32/23 A2998 RMK A01
KJSL 192000Z AUTO VRB03G12KT 10SM CLR 32/23 A2998 RMK A01
KJSL 191940Z AUTO VRB06G16KT 10SM CLR 32/23 A2999 RMK A01
KJSL 191920Z AUTO 26007G15KT 170V310 10SM CLR 32/23 A2999 RMK A01
KJSL 191900Z AUTO 26010KT 190V280 10SM CLR 32/23 A2998 RMK A01
KJSL 191840Z AUTO 25008G15KT 110V280 10SM CLR 32/22 A2999 RMK A01
KJSL 191820Z AUTO 26009G17KT 200V280 10SM CLR 32/23 A3000 RMK A01
KJSL 191800Z AUTO VRB06G15KT 10SM FEW029 FEW034 32/22 A3000 RMK A01
KJSL 191740Z AUTO 25007G15KT 160V290 10SM CLR 32/23 A3000 RMK A01
KJSL 191720Z AUTO VRB07G16KT 10SM CLR 32/23 A3000 RMK A01
KJSL 191700Z AUTO VRB04G14KT 10SM CLR 31/23 A3000 RMK A01
KJSL 191640Z AUTO VRB06G14KT 10SM CLR 31/23 A3001 RMK A01
KJSL 191620Z AUTO 00000G13KT 10SM CLR 31/23 A3001 RMK A01
KJSL 191600Z AUTO 00000G15KT 10SM CLR 31/23 A3001 RMK A01
KJSL 191540Z AUTO 22008G16KT 200V280 10SM CLR 31/23 A3001 RMK A01
KJSL 191520Z AUTO 22010KT 200V260 9SM CLR 30/23 A3001 RMK A01
KJSL 191500Z AUTO VRB06G13KT 10SM FEW028 30/23 A3001 RMK A01
KJSL 191440Z AUTO 22007G13KT 10SM SCT028 SCT036 SCT042 30/23 A3000 RMK A01
KJSL 191420Z AUTO VRB05G13KT 9SM FEW027 SCT034 SCT050 30/24 A3000 RMK A01
KJSL 191400Z AUTO 22007G14KT 200V260 10SM CLR 30/23 A3000 RMK A01
KJSL 191340Z AUTO VRB03G14KT 10SM CLR 30/23 A3000 RMK A01
KJSL 191320Z AUTO 00000G10KT 10SM FEW027 30/23 A2999 RMK A01
KJSL 191300Z AUTO VRB04G10KT 9SM FEW027 29/23 A2999 RMK A01
KJSL 191240Z AUTO 00000G10KT 10SM CLR 29/23 A2999 RMK A01
KJSL 191220Z AUTO VRB06G12KT 10SM CLR 29/23 A2998 RMK A01
KJSL 191200Z AUTO 00000G10KT 10SM FEW026 FEW031 SCT038 29/23 A2998 RMK A01
KJSL 191140Z AUTO VRB04G10KT 9SM FEW025 SCT031 SCT038 29/23 A2997 RMK A01
KJSL 191120Z AUTO 22010KT 10SM CLR 29/23 A2997 RMK A01
KJSL 191100Z AUTO 21009KT 10SM CLR 29/23 A2996 RMK A01
KJSL 191040Z AUTO 20008KT 130V240 10SM CLR 29/23 A2996 RMK A01
KJSL 191020Z AUTO 21011KT 10SM CLR 29/23 A2996 RMK A01
KJSL 191000Z AUTO 21011KT 10SM FEW025 FEW032 29/23 A2995 RMK A01
KJSL 190940Z AUTO 21011KT 9SM SCT024 SCT029 BKN033 29/23 A2995 RMK A01
KJSL 190920Z AUTO 20007G13KT 160V230 9SM SCT023 29/24 A2995 RMK A01
KJSL 190900Z AUTO 20007G14KT 150V230 9SM CLR 29/23 A2995 RMK A01
KJSL 190840Z AUTO 21007G14KT 170V270 9SM CLR 29/23 A2995 RMK A01
KJSL 190820Z AUTO 20008KT 170V230 10SM FEW024 29/23 A2995 RMK A01
KJSL 190800Z AUTO VRB04G11KT 10SM SCT024 29/23 A2996 RMK A01
KJSL 190740Z AUTO VRB05KT 9SM SCT023 SCT034 29/23 A2997 RMK A01
KJSL 190720Z AUTO VRB04KT 8SM SCT024 29/24 A2997 RMK A01
KJSL 190700Z AUTO VRB03KT 9SM CLR 29/24 A2998 RMK A01
KJSL 190640Z AUTO 18004KT 9SM CLR 29/23 A2999 RMK A01
KJSL 190620Z AUTO 00000KT 10SM CLR 29/23 A3000 RMK A01
KJSL 190600Z AUTO 00000KT 10SM CLR 29/24 A3001 RMK A01
KJSL 190540Z AUTO 00000KT 10SM FEW033 FEW039 29/23 A3001 RMK A01
KJSL 190520Z AUTO 00000KT 10SM SCT033 SCT039 29/24 A3001 RMK A01
KJSL 190500Z AUTO 00000KT 10SM FEW033 29/23 A3001 RMK A01
KJSL 190440Z AUTO 00000KT 10SM BKN033 29/23 A3001 RMK A01
KJSL 190420Z AUTO 00000KT 10SM BKN031 BKN037 29/23 A3001 RMK A01
KJSL 190400Z AUTO 00000KT 10SM CLR 29/24 A3001 RMK A01
KJSL 190340Z AUTO 02003KT 10SM CLR 29/23 A3001 RMK A01
KJSL 190320Z AUTO 00000KT 10SM CLR 29/23 A3001 RMK A01
KJSL 190300Z AUTO 00000KT 10SM CLR 29/23 A3000 RMK A01
KJSL 190240Z AUTO 00000KT 10SM CLR 29/24 A3000 RMK A01
KJSL 190220Z AUTO 00000KT 10SM CLR 29/24 A2999 RMK A01
KJSL 190200Z AUTO 00000KT 10SM CLR 29/24 A2999 RMK A01
KJSL 190140Z AUTO 00000KT 10SM CLR 29/24 A2999 RMK A01
KJSL 190120Z AUTO 00000KT 10SM CLR 29/23 A2999 RMK A01
KJSL 190100Z AUTO 00000KT 10SM CLR 29/23 A2998 RMK A01
KJSL 190040Z AUTO 34004KT 10SM CLR 29/23 A2998 RMK A01
KJSL 190020Z AUTO 00000KT 10SM CLR 29/23 A2998 RMK A01
KJSL 190000Z AUTO 00000KT 8SM CLR 29/23 A2998 RMK A01 P0007
KJSL 182340Z AUTO 01006KT 3SM HZ FEW004 SCT026 BKN031 28/23 A2999 RMK A01
KJSL 182320Z AUTO 36006KT 10SM OVC027 30/23 A2999 RMK A01
KJSL 182300Z AUTO 36007KT 300V030 10SM BKN029 BKN033 31/24 A2999 RMK A01
KJSL 182240Z AUTO 00000KT 10SM SCT027 SCT033 31/23 A3000 RMK A01
KJSL 182220Z AUTO 00000KT 10SM FEW028 32/23 A3000 RMK A01
KJSL 182200Z AUTO 00000KT 10SM CLR 32/23 A3000 RMK A01
KJSL 182140Z AUTO 00000KT 10SM CLR 32/23 A3001 RMK A01
KJSL 182120Z AUTO VRB03KT 10SM CLR 32/23 A3001 RMK A01
KJSL 182100Z AUTO 00000KT 10SM FEW027 FEW034 SCT040 33/23 A3001 RMK A01
KJSL 182040Z AUTO 00000KT 10SM FEW026 FEW032 SCT040 32/24 A3002 RMK A01
KJSL 182020Z AUTO VRB04KT 10SM FEW026 32/24 A3002 RMK A01
KJSL 182000Z AUTO VRB03KT 10SM CLR 32/23 A3003 RMK A01
KJSL 181940Z AUTO 00000KT 10SM FEW028 32/23 A3003 RMK A01
KJSL 181920Z AUTO VRB04G10KT 10SM FEW028 31/23 A3003 RMK A01
KJSL 181900Z AUTO VRB05G10KT 10SM CLR 32/23 A3004 RMK A01
KJSL 181840Z AUTO VRB04KT 10SM FEW050 31/23 A3004 RMK A01
KJSL 181820Z AUTO 00000KT 10SM CLR 31/23 A3005 RMK A01
KJSL 181800Z AUTO 00000KT 10SM CLR 31/23 A3005 RMK A01
KJSL 181740Z AUTO VRB05G10KT 10SM CLR 31/23 A3005 RMK A01
KJSL 181720Z AUTO 00000KT 10SM CLR 32/23 A3006 RMK A01
KJSL 181700Z AUTO VRB03KT 10SM CLR 31/23 A3006 RMK A01
KJSL 181640Z AUTO 00000KT 10SM FEW025 FEW031 31/23 A3006 RMK A01
KJSL 181620Z AUTO VRB06KT 10SM SCT025 31/24 A3006 RMK A01
KJSL 181600Z AUTO 00000KT 10SM CLR 31/24 A3007 RMK A01
KJSL 181540Z AUTO VRB04KT 10SM CLR 31/23 A3007 RMK A01
KJSL 181520Z AUTO 00000KT 10SM CLR 31/23 A3006 RMK A01
KJSL 181500Z AUTO 00000KT 10SM CLR 31/23 A3007 RMK A01
KJSL 181440Z AUTO VRB04KT 10SM CLR 32/24 A3006 RMK A01
KJSL 181420Z AUTO VRB04KT 10SM CLR 31/23 A3006 RMK A01
KJSL 181400Z AUTO VRB05KT 10SM FEW023 30/23 A3007 RMK A01
KJSL 181340Z AUTO VRB04KT 10SM FEW023 30/24 A3006 RMK A01
KJSL 181320Z AUTO 00000KT 10SM CLR 30/23 A3006 RMK A01
KJSL 181300Z AUTO VRB03KT 10SM CLR 30/23 A3006 RMK A01
KJSL 181240Z AUTO VRB05G10KT 10SM FEW026 SCT033 30/23 A3005 RMK A01
KJSL 181220Z AUTO 00000KT 10SM FEW026 SCT033 29/23 A3005 RMK A01
KJSL 181200Z AUTO 00000KT 10SM CLR 29/23 A3005 RMK A01
KJSL 181140Z AUTO VRB04G11KT 10SM CLR 29/23 A3004 RMK A01
KJSL 181120Z AUTO 21009KT 10SM CLR 29/23 A3004 RMK A01
KJSL 181100Z AUTO VRB06KT 10SM CLR 29/23 A3003 RMK A01
KJSL 181040Z AUTO 22008KT 10SM CLR 29/23 A3003 RMK A01
KJSL 181020Z AUTO 21009KT 10SM CLR 29/23 A3003 RMK A01
KJSL 181000Z AUTO 21009KT 10SM CLR 29/23 A3003 RMK A01
KJSL 180940Z AUTO VRB05KT 10SM FEW024 29/23 A3003 RMK A01
KJSL 180920Z AUTO 22007KT 10SM CLR 29/23 A3003 RMK A01